sensor_id;sensor_type;location;lat;lon;timestamp;pressure;altitude;pressure_sealevel;temperature;humidity
16806;BME280;8520;50.102;20.010;2022-10-20T00:02:01;99249.50;;;8.99;76.96
16806;BME280;8520;50.102;20.010;2022-10-20T00:04:31;99254.09;;;9.40;75.79
16806;BME280;8520;50.102;20.010;2022-10-20T00:06:59;99254.09;;;9.65;74.50
16806;BME280;8520;50.102;20.010;2022-10-20T00:09:27;99253.81;;;9.25;76.02
16806;BME280;8520;50.102;20.010;2022-10-20T00:11:55;99254.78;;;9.06;77.46
16806;BME280;8520;50.102;20.010;2022-10-20T00:14:23;99253.69;;;9.29;76.54
16806;BME280;8520;50.102;20.010;2022-10-20T00:16:51;99255.22;;;9.43;76.18
16806;BME280;8520;50.102;20.010;2022-10-20T00:19:19;99258.31;;;9.45;76.00
16806;BME280;8520;50.102;20.010;2022-10-20T00:21:48;99266.22;;;9.30;77.52
16806;BME280;8520;50.102;20.010;2022-10-20T00:24:16;99271.94;;;9.10;78.11
16806;BME280;8520;50.102;20.010;2022-10-20T00:26:46;99263.16;;;9.15;78.80
16806;BME280;8520;50.102;20.010;2022-10-20T00:29:14;99271.03;;;8.88;80.60
16806;BME280;8520;50.102;20.010;2022-10-20T00:31:43;99262.03;;;9.38;79.67
16806;BME280;8520;50.102;20.010;2022-10-20T00:34:11;99261.06;;;9.19;80.44
16806;BME280;8520;50.102;20.010;2022-10-20T00:36:39;99257.97;;;9.43;79.65
16806;BME280;8520;50.102;20.010;2022-10-20T00:39:08;99263.47;;;9.43;79.14
16806;BME280;8520;50.102;20.010;2022-10-20T00:41:36;99264.47;;;8.98;80.31
16806;BME280;8520;50.102;20.010;2022-10-20T00:47:08;99260.94;;;9.35;80.05
16806;BME280;8520;50.102;20.010;2022-10-20T00:49:37;99259.59;;;9.40;79.76
16806;BME280;8520;50.102;20.010;2022-10-20T00:52:06;99268.59;;;9.66;78.60
16806;BME280;8520;50.102;20.010;2022-10-20T00:54:36;99263.59;;;9.52;79.18
16806;BME280;8520;50.102;20.010;2022-10-20T00:57:04;99257.94;;;9.04;79.67
16806;BME280;8520;50.102;20.010;2022-10-20T00:59:35;99258.50;;;9.12;79.47
16806;BME280;8520;50.102;20.010;2022-10-20T01:02:04;99259.41;;;9.22;79.28
16806;BME280;8520;50.102;20.010;2022-10-20T01:04:35;99256.31;;;9.07;79.66
16806;BME280;8520;50.102;20.010;2022-10-20T01:07:04;99253.13;;;9.21;78.94
16806;BME280;8520;50.102;20.010;2022-10-20T01:09:32;99245.44;;;9.29;78.67
16806;BME280;8520;50.102;20.010;2022-10-20T01:12:08;99252.69;;;9.35;78.27
16806;BME280;8520;50.102;20.010;2022-10-20T01:14:42;99257.75;;;9.24;78.32
16806;BME280;8520;50.102;20.010;2022-10-20T01:17:20;99256.53;;;9.00;78.79
16806;BME280;8520;50.102;20.010;2022-10-20T01:20:15;99251.72;;;9.17;78.54
16806;BME280;8520;50.102;20.010;2022-10-20T01:23:26;99249.94;;;9.10;78.21
16806;BME280;8520;50.102;20.010;2022-10-20T01:26:36;99247.84;;;9.01;78.72
16806;BME280;8520;50.102;20.010;2022-10-20T01:29:13;99247.16;;;8.84;79.28
16806;BME280;8520;50.102;20.010;2022-10-20T01:31:47;99251.97;;;8.68;79.21
16806;BME280;8520;50.102;20.010;2022-10-20T01:34:21;99250.47;;;8.38;81.17
16806;BME280;8520;50.102;20.010;2022-10-20T01:36:57;99249.38;;;8.35;81.08
16806;BME280;8520;50.102;20.010;2022-10-20T01:39:30;99249.81;;;8.17;81.87
16806;BME280;8520;50.102;20.010;2022-10-20T01:42:03;99255.59;;;8.07;81.68
16806;BME280;8520;50.102;20.010;2022-10-20T01:44:36;99252.38;;;7.95;82.57
16806;BME280;8520;50.102;20.010;2022-10-20T01:47:06;99255.03;;;8.28;81.25
16806;BME280;8520;50.102;20.010;2022-10-20T01:49:36;99261.53;;;8.34;80.11
16806;BME280;8520;50.102;20.010;2022-10-20T01:52:04;99258.63;;;8.25;80.19
16806;BME280;8520;50.102;20.010;2022-10-20T01:54:32;99247.25;;;8.10;80.81
16806;BME280;8520;50.102;20.010;2022-10-20T01:57:11;99252.59;;;8.30;81.33
16806;BME280;8520;50.102;20.010;2022-10-20T01:59:57;99252.63;;;7.85;82.93
16806;BME280;8520;50.102;20.010;2022-10-20T02:05:49;99253.81;;;7.67;84.33
16806;BME280;8520;50.102;20.010;2022-10-20T02:08:27;99255.31;;;7.23;86.32
16806;BME280;8520;50.102;20.010;2022-10-20T02:10:59;99249.38;;;7.25;86.20
16806;BME280;8520;50.102;20.010;2022-10-20T02:13:29;99247.22;;;7.16;86.45
16806;BME280;8520;50.102;20.010;2022-10-20T02:16:00;99254.69;;;7.16;86.96
16806;BME280;8520;50.102;20.010;2022-10-20T02:18:34;99255.44;;;7.16;87.29
16806;BME280;8520;50.102;20.010;2022-10-20T02:21:06;99251.63;;;7.46;85.46
16806;BME280;8520;50.102;20.010;2022-10-20T02:23:37;99249.75;;;7.59;84.79
16806;BME280;8520;50.102;20.010;2022-10-20T02:26:06;99247.16;;;7.68;84.20
16806;BME280;8520;50.102;20.010;2022-10-20T02:28:38;99252.97;;;7.38;84.68
16806;BME280;8520;50.102;20.010;2022-10-20T02:31:09;99253.94;;;7.48;84.43
16806;BME280;8520;50.102;20.010;2022-10-20T02:33:38;99260.88;;;7.52;85.24
16806;BME280;8520;50.102;20.010;2022-10-20T02:36:12;99252.00;;;7.12;85.27
16806;BME280;8520;50.102;20.010;2022-10-20T02:38:42;99258.69;;;7.11;85.66
16806;BME280;8520;50.102;20.010;2022-10-20T02:41:10;99258.00;;;6.71;86.98
16806;BME280;8520;50.102;20.010;2022-10-20T02:43:39;99265.94;;;7.01;86.28
16806;BME280;8520;50.102;20.010;2022-10-20T02:46:07;99265.66;;;6.79;86.98
16806;BME280;8520;50.102;20.010;2022-10-20T02:48:36;99254.91;;;6.69;87.25
16806;BME280;8520;50.102;20.010;2022-10-20T02:51:05;99251.56;;;6.61;87.30
16806;BME280;8520;50.102;20.010;2022-10-20T02:53:33;99256.72;;;6.75;86.71
16806;BME280;8520;50.102;20.010;2022-10-20T02:56:01;99260.44;;;6.85;85.96
16806;BME280;8520;50.102;20.010;2022-10-20T02:58:29;99256.09;;;7.04;85.51
16806;BME280;8520;50.102;20.010;2022-10-20T03:00:57;99259.44;;;6.75;86.26
16806;BME280;8520;50.102;20.010;2022-10-20T03:03:25;99259.06;;;6.93;85.28
16806;BME280;8520;50.102;20.010;2022-10-20T03:05:54;99275.00;;;6.62;86.18
16806;BME280;8520;50.102;20.010;2022-10-20T03:08:22;99275.69;;;6.46;87.05
16806;BME280;8520;50.102;20.010;2022-10-20T03:10:50;99277.59;;;6.69;86.32
16806;BME280;8520;50.102;20.010;2022-10-20T03:13:18;99287.00;;;6.48;87.44
16806;BME280;8520;50.102;20.010;2022-10-20T03:15:46;99274.78;;;6.73;86.42
16806;BME280;8520;50.102;20.010;2022-10-20T03:18:14;99271.84;;;7.00;85.23
16806;BME280;8520;50.102;20.010;2022-10-20T03:20:42;99285.72;;;6.93;85.33
16806;BME280;8520;50.102;20.010;2022-10-20T03:23:12;99287.84;;;6.65;85.37
16806;BME280;8520;50.102;20.010;2022-10-20T03:25:45;99291.31;;;6.49;86.37
16806;BME280;8520;50.102;20.010;2022-10-20T03:28:13;99291.91;;;6.57;86.51
16806;BME280;8520;50.102;20.010;2022-10-20T03:30:41;99289.66;;;6.72;85.38
16806;BME280;8520;50.102;20.010;2022-10-20T03:33:09;99299.63;;;6.42;86.48
16806;BME280;8520;50.102;20.010;2022-10-20T03:35:37;99295.97;;;7.25;84.13
16806;BME280;8520;50.102;20.010;2022-10-20T03:38:05;99289.06;;;7.53;82.50
16806;BME280;8520;50.102;20.010;2022-10-20T03:40:34;99299.94;;;7.56;81.82
16806;BME280;8520;50.102;20.010;2022-10-20T03:43:03;99303.50;;;7.21;82.96
16806;BME280;8520;50.102;20.010;2022-10-20T03:45:31;99302.34;;;7.02;83.85
16806;BME280;8520;50.102;20.010;2022-10-20T03:47:59;99304.69;;;6.83;84.13
16806;BME280;8520;50.102;20.010;2022-10-20T03:50:26;99301.41;;;6.72;85.04
16806;BME280;8520;50.102;20.010;2022-10-20T03:52:54;99309.81;;;6.81;84.46
16806;BME280;8520;50.102;20.010;2022-10-20T03:55:22;99301.50;;;6.85;84.43
16806;BME280;8520;50.102;20.010;2022-10-20T03:57:52;99311.38;;;6.63;84.91
16806;BME280;8520;50.102;20.010;2022-10-20T04:00:20;99312.91;;;6.64;86.30
16806;BME280;8520;50.102;20.010;2022-10-20T04:02:48;99316.19;;;6.75;85.38
16806;BME280;8520;50.102;20.010;2022-10-20T04:05:18;99308.81;;;6.92;83.93
16806;BME280;8520;50.102;20.010;2022-10-20T04:07:47;99304.41;;;6.78;84.66
16806;BME280;8520;50.102;20.010;2022-10-20T04:10:15;99308.47;;;6.90;84.28
16806;BME280;8520;50.102;20.010;2022-10-20T04:12:43;99307.97;;;7.15;83.62
16806;BME280;8520;50.102;20.010;2022-10-20T04:15:12;99298.59;;;7.12;83.02
16806;BME280;8520;50.102;20.010;2022-10-20T04:17:41;99298.91;;;6.98;83.14
16806;BME280;8520;50.102;20.010;2022-10-20T04:20:09;99305.69;;;6.53;84.98
16806;BME280;8520;50.102;20.010;2022-10-20T04:22:37;99303.38;;;6.52;85.04
16806;BME280;8520;50.102;20.010;2022-10-20T04:25:06;99303.56;;;6.81;84.82
16806;BME280;8520;50.102;20.010;2022-10-20T04:27:34;99307.34;;;6.67;84.71
16806;BME280;8520;50.102;20.010;2022-10-20T04:30:04;99306.63;;;7.03;83.27
16806;BME280;8520;50.102;20.010;2022-10-20T04:32:33;99305.59;;;7.33;82.38
16806;BME280;8520;50.102;20.010;2022-10-20T04:35:02;99310.03;;;7.27;81.88
16806;BME280;8520;50.102;20.010;2022-10-20T04:37:30;99304.44;;;7.14;82.68
16806;BME280;8520;50.102;20.010;2022-10-20T04:39:58;99304.97;;;7.25;81.84
16806;BME280;8520;50.102;20.010;2022-10-20T04:42:26;99298.06;;;7.37;81.13
16806;BME280;8520;50.102;20.010;2022-10-20T04:44:54;99296.25;;;7.47;81.16
16806;BME280;8520;50.102;20.010;2022-10-20T04:47:30;99307.09;;;7.18;81.95
16806;BME280;8520;50.102;20.010;2022-10-20T04:50:00;99299.28;;;7.52;81.27
16806;BME280;8520;50.102;20.010;2022-10-20T04:52:28;99303.66;;;7.82;79.82
16806;BME280;8520;50.102;20.010;2022-10-20T04:54:56;99300.88;;;7.50;81.14
16806;BME280;8520;50.102;20.010;2022-10-20T04:57:24;99314.03;;;7.22;81.53
16806;BME280;8520;50.102;20.010;2022-10-20T04:59:52;99303.56;;;7.69;80.29
16806;BME280;8520;50.102;20.010;2022-10-20T05:02:20;99301.75;;;7.63;80.15
16806;BME280;8520;50.102;20.010;2022-10-20T05:04:48;99309.06;;;7.69;80.12
16806;BME280;8520;50.102;20.010;2022-10-20T05:07:17;99310.31;;;7.65;80.30
16806;BME280;8520;50.102;20.010;2022-10-20T05:09:46;99309.56;;;7.64;79.78
16806;BME280;8520;50.102;20.010;2022-10-20T05:12:14;99319.75;;;7.64;79.83
16806;BME280;8520;50.102;20.010;2022-10-20T05:14:42;99316.56;;;7.49;80.23
16806;BME280;8520;50.102;20.010;2022-10-20T05:17:10;99317.91;;;7.25;81.27
16806;BME280;8520;50.102;20.010;2022-10-20T05:19:38;99322.31;;;7.55;80.87
16806;BME280;8520;50.102;20.010;2022-10-20T05:22:06;99317.59;;;7.55;80.24
16806;BME280;8520;50.102;20.010;2022-10-20T05:24:36;99321.81;;;7.60;80.06
16806;BME280;8520;50.102;20.010;2022-10-20T05:27:04;99326.28;;;7.18;81.42
16806;BME280;8520;50.102;20.010;2022-10-20T05:29:32;99326.19;;;7.05;82.22
16806;BME280;8520;50.102;20.010;2022-10-20T05:32:00;99335.03;;;7.29;81.64
16806;BME280;8520;50.102;20.010;2022-10-20T05:34:28;99335.03;;;7.29;80.98
16806;BME280;8520;50.102;20.010;2022-10-20T05:36:56;99340.47;;;7.32;81.29
16806;BME280;8520;50.102;20.010;2022-10-20T05:39:24;99330.09;;;7.40;80.76
16806;BME280;8520;50.102;20.010;2022-10-20T05:41:53;99333.38;;;7.51;80.32
16806;BME280;8520;50.102;20.010;2022-10-20T05:44:21;99336.88;;;7.68;79.68
16806;BME280;8520;50.102;20.010;2022-10-20T05:46:49;99341.63;;;7.84;79.03
16806;BME280;8520;50.102;20.010;2022-10-20T05:49:17;99341.56;;;7.87;78.89
16806;BME280;8520;50.102;20.010;2022-10-20T05:51:46;99343.25;;;7.97;78.31
16806;BME280;8520;50.102;20.010;2022-10-20T05:54:14;99349.09;;;7.83;78.35
16806;BME280;8520;50.102;20.010;2022-10-20T05:56:42;99347.19;;;7.64;79.32
16806;BME280;8520;50.102;20.010;2022-10-20T05:59:12;99348.81;;;7.61;79.68
16806;BME280;8520;50.102;20.010;2022-10-20T06:01:40;99344.31;;;7.35;80.56
16806;BME280;8520;50.102;20.010;2022-10-20T06:04:16;99352.41;;;7.58;79.93
16806;BME280;8520;50.102;20.010;2022-10-20T06:06:44;99349.88;;;7.31;81.41
16806;BME280;8520;50.102;20.010;2022-10-20T06:09:15;99349.16;;;7.63;80.38
16806;BME280;8520;50.102;20.010;2022-10-20T06:11:43;99348.31;;;7.83;79.82
16806;BME280;8520;50.102;20.010;2022-10-20T06:14:13;99362.91;;;7.96;79.38
16806;BME280;8520;50.102;20.010;2022-10-20T06:16:41;99355.94;;;7.91;79.14
16806;BME280;8520;50.102;20.010;2022-10-20T06:19:09;99358.59;;;8.11;79.02
16806;BME280;8520;50.102;20.010;2022-10-20T06:21:37;99351.84;;;7.99;78.88
16806;BME280;8520;50.102;20.010;2022-10-20T06:24:06;99358.44;;;8.35;78.33
16806;BME280;8520;50.102;20.010;2022-10-20T06:26:35;99366.50;;;8.42;78.29
16806;BME280;8520;50.102;20.010;2022-10-20T06:29:04;99363.75;;;8.42;78.03
16806;BME280;8520;50.102;20.010;2022-10-20T06:31:35;99361.06;;;8.54;77.90
16806;BME280;8520;50.102;20.010;2022-10-20T06:34:05;99367.75;;;8.53;77.35
16806;BME280;8520;50.102;20.010;2022-10-20T06:36:34;99372.03;;;8.54;77.63
16806;BME280;8520;50.102;20.010;2022-10-20T06:39:05;99362.94;;;8.58;77.43
16806;BME280;8520;50.102;20.010;2022-10-20T06:41:34;99361.56;;;8.49;77.18
16806;BME280;8520;50.102;20.010;2022-10-20T06:44:02;99360.56;;;8.72;76.86
16806;BME280;8520;50.102;20.010;2022-10-20T06:46:31;99364.25;;;8.82;76.76
16806;BME280;8520;50.102;20.010;2022-10-20T06:49:03;99372.19;;;8.93;76.73
16806;BME280;8520;50.102;20.010;2022-10-20T06:51:32;99366.75;;;9.05;76.21
16806;BME280;8520;50.102;20.010;2022-10-20T06:54:01;99368.69;;;8.63;76.73
16806;BME280;8520;50.102;20.010;2022-10-20T06:56:31;99368.50;;;8.70;77.83
16806;BME280;8520;50.102;20.010;2022-10-20T06:59:00;99369.88;;;8.91;76.81
16806;BME280;8520;50.102;20.010;2022-10-20T07:01:29;99366.97;;;8.82;77.60
16806;BME280;8520;50.102;20.010;2022-10-20T07:04:00;99367.31;;;8.84;78.14
16806;BME280;8520;50.102;20.010;2022-10-20T07:06:31;99372.63;;;8.91;77.90
16806;BME280;8520;50.102;20.010;2022-10-20T07:09:00;99365.78;;;9.25;77.46
16806;BME280;8520;50.102;20.010;2022-10-20T07:11:30;99357.00;;;9.43;77.01
16806;BME280;8520;50.102;20.010;2022-10-20T07:14:00;99362.94;;;9.66;76.79
16806;BME280;8520;50.102;20.010;2022-10-20T07:16:30;99354.91;;;9.72;76.12
16806;BME280;8520;50.102;20.010;2022-10-20T07:18:59;99359.97;;;9.74;75.84
16806;BME280;8520;50.102;20.010;2022-10-20T07:21:29;99360.53;;;9.81;75.68
16806;BME280;8520;50.102;20.010;2022-10-20T07:24:04;99354.91;;;9.85;75.29
16806;BME280;8520;50.102;20.010;2022-10-20T07:26:34;99356.31;;;9.77;75.43
16806;BME280;8520;50.102;20.010;2022-10-20T07:29:03;99358.53;;;9.82;75.10
16806;BME280;8520;50.102;20.010;2022-10-20T07:31:33;99361.47;;;10.13;74.77
16806;BME280;8520;50.102;20.010;2022-10-20T07:34:03;99359.81;;;10.28;74.26
16806;BME280;8520;50.102;20.010;2022-10-20T07:36:51;99353.16;;;10.38;73.86
16806;BME280;8520;50.102;20.010;2022-10-20T07:39:19;99360.44;;;10.45;73.07
16806;BME280;8520;50.102;20.010;2022-10-20T07:41:47;99360.38;;;10.58;73.56
16806;BME280;8520;50.102;20.010;2022-10-20T07:44:16;99351.09;;;10.64;73.29
16806;BME280;8520;50.102;20.010;2022-10-20T07:46:44;99341.75;;;10.62;72.65
16806;BME280;8520;50.102;20.010;2022-10-20T07:49:12;99348.41;;;10.73;72.87
16806;BME280;8520;50.102;20.010;2022-10-20T07:52:02;99352.56;;;10.78;73.05
16806;BME280;8520;50.102;20.010;2022-10-20T07:54:30;99344.28;;;10.78;73.04
16806;BME280;8520;50.102;20.010;2022-10-20T07:56:58;99348.84;;;10.94;72.72
16806;BME280;8520;50.102;20.010;2022-10-20T07:59:26;99347.69;;;11.04;72.03
16806;BME280;8520;50.102;20.010;2022-10-20T08:01:55;99348.50;;;11.14;72.30
16806;BME280;8520;50.102;20.010;2022-10-20T08:04:25;99354.28;;;11.28;72.15
16806;BME280;8520;50.102;20.010;2022-10-20T08:06:54;99349.06;;;11.30;71.32
16806;BME280;8520;50.102;20.010;2022-10-20T08:09:23;99353.88;;;11.39;71.21
16806;BME280;8520;50.102;20.010;2022-10-20T08:11:52;99362.50;;;11.50;70.91
16806;BME280;8520;50.102;20.010;2022-10-20T08:14:22;99350.59;;;11.62;70.18
16806;BME280;8520;50.102;20.010;2022-10-20T08:16:53;99355.56;;;11.77;69.80
16806;BME280;8520;50.102;20.010;2022-10-20T08:19:28;99357.44;;;11.80;69.31
16806;BME280;8520;50.102;20.010;2022-10-20T08:22:10;99360.59;;;11.69;69.13
16806;BME280;8520;50.102;20.010;2022-10-20T08:24:40;99367.28;;;11.81;69.38
16806;BME280;8520;50.102;20.010;2022-10-20T08:27:08;99362.50;;;11.81;69.66
16806;BME280;8520;50.102;20.010;2022-10-20T08:29:36;99362.53;;;11.90;69.32
16806;BME280;8520;50.102;20.010;2022-10-20T08:32:04;99360.56;;;11.91;69.58
16806;BME280;8520;50.102;20.010;2022-10-20T08:34:32;99361.19;;;12.04;68.75
16806;BME280;8520;50.102;20.010;2022-10-20T08:37:00;99358.31;;;12.17;67.75
16806;BME280;8520;50.102;20.010;2022-10-20T08:39:28;99366.72;;;12.13;67.23
16806;BME280;8520;50.102;20.010;2022-10-20T08:41:59;99369.38;;;12.17;67.11
16806;BME280;8520;50.102;20.010;2022-10-20T08:44:36;99370.97;;;11.96;68.33
16806;BME280;8520;50.102;20.010;2022-10-20T08:47:23;99361.97;;;12.14;68.45
16806;BME280;8520;50.102;20.010;2022-10-20T08:49:58;99364.94;;;12.38;68.39
16806;BME280;8520;50.102;20.010;2022-10-20T08:52:26;99370.47;;;12.38;68.13
16806;BME280;8520;50.102;20.010;2022-10-20T08:54:56;99367.84;;;12.43;67.92
16806;BME280;8520;50.102;20.010;2022-10-20T08:57:28;99364.63;;;12.27;68.62
16806;BME280;8520;50.102;20.010;2022-10-20T09:00:12;99369.84;;;12.43;68.81
16806;BME280;8520;50.102;20.010;2022-10-20T09:02:40;99368.16;;;12.45;68.56
16806;BME280;8520;50.102;20.010;2022-10-20T09:05:09;99367.72;;;12.65;67.83
16806;BME280;8520;50.102;20.010;2022-10-20T09:07:44;99358.78;;;12.61;68.03
16806;BME280;8520;50.102;20.010;2022-10-20T09:10:23;99358.00;;;12.33;67.17
16806;BME280;8520;50.102;20.010;2022-10-20T09:12:53;99360.16;;;12.29;67.42
16806;BME280;8520;50.102;20.010;2022-10-20T09:15:22;99357.59;;;12.44;66.72
16806;BME280;8520;50.102;20.010;2022-10-20T09:17:54;99353.59;;;12.54;65.78
16806;BME280;8520;50.102;20.010;2022-10-20T09:20:26;99346.97;;;12.51;66.19
16806;BME280;8520;50.102;20.010;2022-10-20T09:22:56;99350.19;;;12.50;66.36
16806;BME280;8520;50.102;20.010;2022-10-20T09:25:30;99329.47;;;12.55;66.18
16806;BME280;8520;50.102;20.010;2022-10-20T09:27:59;99343.13;;;12.40;65.65
16806;BME280;8520;50.102;20.010;2022-10-20T09:30:32;99338.53;;;12.73;65.67
16806;BME280;8520;50.102;20.010;2022-10-20T09:33:19;99341.59;;;12.75;64.33
16806;BME280;8520;50.102;20.010;2022-10-20T09:35:48;99341.59;;;12.48;63.83
16806;BME280;8520;50.102;20.010;2022-10-20T09:38:18;99334.69;;;12.62;63.20
16806;BME280;8520;50.102;20.010;2022-10-20T09:41:01;99334.66;;;12.89;62.32
16806;BME280;8520;50.102;20.010;2022-10-20T09:43:37;99336.66;;;12.89;62.05
16806;BME280;8520;50.102;20.010;2022-10-20T09:46:08;99327.25;;;13.04;61.82
16806;BME280;8520;50.102;20.010;2022-10-20T09:48:39;99333.84;;;13.07;62.31
16806;BME280;8520;50.102;20.010;2022-10-20T09:51:13;99326.34;;;13.07;61.51
16806;BME280;8520;50.102;20.010;2022-10-20T09:53:50;99336.38;;;12.68;62.05
16806;BME280;8520;50.102;20.010;2022-10-20T09:56:24;99334.94;;;13.09;61.96
16806;BME280;8520;50.102;20.010;2022-10-20T09:58:54;99323.53;;;13.35;61.60
16806;BME280;8520;50.102;20.010;2022-10-20T10:01:23;99330.00;;;13.23;60.19
16806;BME280;8520;50.102;20.010;2022-10-20T10:03:52;99327.78;;;13.45;59.40
16806;BME280;8520;50.102;20.010;2022-10-20T10:06:31;99322.25;;;13.45;59.63
16806;BME280;8520;50.102;20.010;2022-10-20T10:09:26;99326.19;;;13.20;60.57
16806;BME280;8520;50.102;20.010;2022-10-20T10:11:59;99328.44;;;13.31;58.97
16806;BME280;8520;50.102;20.010;2022-10-20T10:14:30;99325.56;;;13.58;58.68
16806;BME280;8520;50.102;20.010;2022-10-20T10:17:00;99326.06;;;13.57;58.43
16806;BME280;8520;50.102;20.010;2022-10-20T10:19:29;99326.22;;;13.53;58.90
16806;BME280;8520;50.102;20.010;2022-10-20T10:21:59;99330.75;;;13.32;58.46
16806;BME280;8520;50.102;20.010;2022-10-20T10:24:46;99325.97;;;13.33;58.28
16806;BME280;8520;50.102;20.010;2022-10-20T10:27:21;99318.59;;;13.72;58.44
16806;BME280;8520;50.102;20.010;2022-10-20T10:29:52;99328.78;;;13.66;58.45
16806;BME280;8520;50.102;20.010;2022-10-20T10:32:23;99324.25;;;13.78;58.57
16806;BME280;8520;50.102;20.010;2022-10-20T10:35:11;99312.44;;;13.68;59.47
16806;BME280;8520;50.102;20.010;2022-10-20T10:37:46;99306.09;;;13.77;59.56
16806;BME280;8520;50.102;20.010;2022-10-20T10:40:17;99314.69;;;13.55;59.37
16806;BME280;8520;50.102;20.010;2022-10-20T10:43:12;99307.47;;;13.81;58.90
16806;BME280;8520;50.102;20.010;2022-10-20T10:45:51;99305.81;;;13.75;58.77
16806;BME280;8520;50.102;20.010;2022-10-20T10:48:34;99303.94;;;14.05;59.06
16806;BME280;8520;50.102;20.010;2022-10-20T10:51:09;99303.09;;;13.65;60.66
16806;BME280;8520;50.102;20.010;2022-10-20T10:53:49;99300.22;;;13.84;60.16
16806;BME280;8520;50.102;20.010;2022-10-20T10:56:28;99300.44;;;13.95;59.38
16806;BME280;8520;50.102;20.010;2022-10-20T10:59:04;99291.94;;;13.99;58.32
16806;BME280;8520;50.102;20.010;2022-10-20T11:01:53;99288.25;;;14.02;57.08
16806;BME280;8520;50.102;20.010;2022-10-20T11:07:32;99285.69;;;14.37;57.07
16806;BME280;8520;50.102;20.010;2022-10-20T11:10:08;99279.16;;;14.25;57.72
16806;BME280;8520;50.102;20.010;2022-10-20T11:12:52;99285.84;;;14.18;56.70
16806;BME280;8520;50.102;20.010;2022-10-20T11:15:37;99277.53;;;14.18;56.62
16806;BME280;8520;50.102;20.010;2022-10-20T11:18:13;99277.91;;;14.50;55.84
16806;BME280;8520;50.102;20.010;2022-10-20T11:20:52;99277.81;;;14.35;56.20
16806;BME280;8520;50.102;20.010;2022-10-20T11:26:36;99267.22;;;14.34;54.72
16806;BME280;8520;50.102;20.010;2022-10-20T11:29:14;99257.50;;;14.38;54.13
16806;BME280;8520;50.102;20.010;2022-10-20T11:31:49;99253.63;;;14.60;54.65
16806;BME280;8520;50.102;20.010;2022-10-20T11:34:26;99256.38;;;14.60;54.16
16806;BME280;8520;50.102;20.010;2022-10-20T11:37:01;99251.22;;;14.67;54.25
16806;BME280;8520;50.102;20.010;2022-10-20T11:39:36;99253.50;;;14.98;54.16
16806;BME280;8520;50.102;20.010;2022-10-20T11:42:18;99238.28;;;15.08;54.03
16806;BME280;8520;50.102;20.010;2022-10-20T11:44:47;99233.97;;;15.07;54.94
16806;BME280;8520;50.102;20.010;2022-10-20T11:47:19;99236.31;;;15.09;54.90
16806;BME280;8520;50.102;20.010;2022-10-20T11:49:51;99223.88;;;15.40;54.47
16806;BME280;8520;50.102;20.010;2022-10-20T11:52:42;99220.41;;;15.80;53.32
16806;BME280;8520;50.102;20.010;2022-10-20T11:55:25;99212.63;;;16.76;51.35
16806;BME280;8520;50.102;20.010;2022-10-20T11:58:13;99211.81;;;17.39;50.36
16806;BME280;8520;50.102;20.010;2022-10-20T12:00:56;99213.09;;;18.85;45.87
16806;BME280;8520;50.102;20.010;2022-10-20T12:03:51;99201.28;;;19.76;45.06
16806;BME280;8520;50.102;20.010;2022-10-20T12:06:53;99209.69;;;20.70;42.64
16806;BME280;8520;50.102;20.010;2022-10-20T12:09:40;99201.09;;;22.14;41.00
16806;BME280;8520;50.102;20.010;2022-10-20T12:12:13;99207.59;;;21.61;41.68
16806;BME280;8520;50.102;20.010;2022-10-20T12:14:46;99203.66;;;22.12;40.21
16806;BME280;8520;50.102;20.010;2022-10-20T12:17:23;99199.19;;;22.04;40.09
16806;BME280;8520;50.102;20.010;2022-10-20T12:23:05;99199.72;;;22.91;38.51
16806;BME280;8520;50.102;20.010;2022-10-20T12:25:39;99194.72;;;22.14;39.57
16806;BME280;8520;50.102;20.010;2022-10-20T12:31:15;99182.84;;;21.83;40.56
16806;BME280;8520;50.102;20.010;2022-10-20T12:33:58;99188.63;;;21.91;40.08
16806;BME280;8520;50.102;20.010;2022-10-20T12:36:32;99189.38;;;21.92;39.53
16806;BME280;8520;50.102;20.010;2022-10-20T12:39:14;99195.53;;;21.17;40.34
16806;BME280;8520;50.102;20.010;2022-10-20T12:41:54;99182.34;;;20.82;40.85
16806;BME280;8520;50.102;20.010;2022-10-20T12:44:23;99179.69;;;21.19;40.79
16806;BME280;8520;50.102;20.010;2022-10-20T12:46:54;99176.13;;;21.19;41.00
16806;BME280;8520;50.102;20.010;2022-10-20T12:49:28;99172.25;;;21.27;40.90
16806;BME280;8520;50.102;20.010;2022-10-20T12:51:58;99160.03;;;21.25;40.95
16806;BME280;8520;50.102;20.010;2022-10-20T12:54:32;99158.66;;;20.53;41.94
16806;BME280;8520;50.102;20.010;2022-10-20T12:57:05;99164.88;;;20.70;42.43
16806;BME280;8520;50.102;20.010;2022-10-20T12:59:50;99163.28;;;19.98;42.78
16806;BME280;8520;50.102;20.010;2022-10-20T13:02:31;99158.94;;;19.33;43.83
16806;BME280;8520;50.102;20.010;2022-10-20T13:05:02;99163.53;;;19.25;44.58
16806;BME280;8520;50.102;20.010;2022-10-20T13:10:37;99165.56;;;19.24;44.23
16806;BME280;8520;50.102;20.010;2022-10-20T13:13:38;99162.75;;;19.24;44.28
16806;BME280;8520;50.102;20.010;2022-10-20T13:16:17;99163.53;;;19.25;44.19
16806;BME280;8520;50.102;20.010;2022-10-20T13:18:48;99161.50;;;19.31;44.80
16806;BME280;8520;50.102;20.010;2022-10-20T13:21:22;99163.72;;;19.44;44.05
16806;BME280;8520;50.102;20.010;2022-10-20T13:24:04;99163.03;;;18.42;45.48
16806;BME280;8520;50.102;20.010;2022-10-20T13:26:45;99152.69;;;18.77;45.21
16806;BME280;8520;50.102;20.010;2022-10-20T13:29:21;99158.16;;;19.38;44.87
16806;BME280;8520;50.102;20.010;2022-10-20T13:32:04;99161.19;;;19.46;44.81
16806;BME280;8520;50.102;20.010;2022-10-20T13:34:40;99152.44;;;18.74;45.30
16806;BME280;8520;50.102;20.010;2022-10-20T13:37:45;99151.88;;;18.54;45.57
16806;BME280;8520;50.102;20.010;2022-10-20T13:40:23;99141.50;;;18.77;45.41
16806;BME280;8520;50.102;20.010;2022-10-20T13:43:06;99136.69;;;18.66;44.82
16806;BME280;8520;50.102;20.010;2022-10-20T13:45:52;99140.75;;;18.70;45.27
16806;BME280;8520;50.102;20.010;2022-10-20T13:48:33;99137.66;;;18.46;45.07
16806;BME280;8520;50.102;20.010;2022-10-20T13:51:12;99140.13;;;17.94;45.31
16806;BME280;8520;50.102;20.010;2022-10-20T13:53:48;99135.16;;;18.76;44.78
16806;BME280;8520;50.102;20.010;2022-10-20T13:56:23;99132.34;;;18.98;44.69